createdAt,value
2022-08-28T00:03:27.008Z,17.39
2022-08-28T00:08:31.813Z,17.32
2022-08-28T00:13:33.188Z,17.39
2022-08-28T00:18:35.085Z,17.47
2022-08-28T00:23:42.951Z,17.45
2022-08-28T00:28:44.549Z,17.40
2022-08-28T00:33:48.096Z,17.32
2022-08-28T00:38:50.057Z,17.39
2022-08-28T00:43:51.422Z,17.47
2022-08-28T00:48:52.755Z,17.34
2022-08-28T00:53:58.749Z,17.24
2022-08-28T00:59:03.534Z,17.15
2022-08-28T01:04:06.308Z,17.11
2022-08-28T01:09:07.681Z,17.12
2022-08-28T01:14:09.174Z,17.23
2022-08-28T01:19:15.940Z,17.17
2022-08-28T01:24:18.527Z,17.12
2022-08-28T01:29:20.838Z,17.07
2022-08-28T01:34:22.396Z,17.07
2022-08-28T01:39:24.724Z,17.10
2022-08-28T01:44:27.069Z,17.00
2022-08-28T01:49:29.450Z,17.01
2022-08-28T01:54:30.859Z,17.06
2022-08-28T01:59:33.227Z,17.14
2022-08-28T02:04:35.532Z,17.11
2022-08-28T02:09:36.924Z,16.98
2022-08-28T02:14:38.794Z,17.11
2022-08-28T02:19:40.127Z,16.99
2022-08-28T02:24:41.466Z,16.95
2022-08-28T02:29:43.718Z,17.05
2022-08-28T02:34:45.080Z,16.93
2022-08-28T02:39:46.946Z,17.14
2022-08-28T02:44:48.284Z,17.19
2022-08-28T02:49:49.913Z,17.05
2022-08-28T02:54:51.321Z,17.02
2022-08-28T03:04:55.460Z,17.05
2022-08-28T03:09:56.863Z,16.91
2022-08-28T03:14:58.197Z,16.86
2022-08-28T03:20:00.279Z,16.91
2022-08-28T03:25:01.624Z,16.79
2022-08-28T03:30:03.900Z,16.98
2022-08-28T03:35:05.589Z,16.89
2022-08-28T03:40:07.664Z,16.78
2022-08-28T03:45:09.799Z,16.72
2022-08-28T03:50:12.074Z,16.62
2022-08-28T03:55:14.032Z,16.54
2022-08-28T04:00:16.354Z,16.70
2022-08-28T04:05:17.802Z,16.76
2022-08-28T04:10:19.966Z,16.72
2022-08-28T04:15:21.838Z,16.67
2022-08-28T04:20:24.098Z,16.70
2022-08-28T04:25:25.470Z,16.49
2022-08-28T04:30:26.843Z,16.46
2022-08-28T04:35:29.038Z,16.50
2022-08-28T04:40:30.427Z,16.48
2022-08-28T04:45:31.911Z,16.50
2022-08-28T04:50:33.812Z,16.56
2022-08-28T04:55:53.685Z,16.69
2022-08-28T05:00:56.575Z,16.80
2022-08-28T05:05:57.946Z,16.73
2022-08-28T05:11:09.971Z,16.69
2022-08-28T05:16:11.837Z,16.74
2022-08-28T05:21:20.633Z,16.91
2022-08-28T05:26:22.191Z,16.98
2022-08-28T05:31:29.273Z,17.04
2022-08-28T05:36:33.151Z,17.32
2022-08-28T05:41:34.906Z,17.29
2022-08-28T05:46:37.459Z,17.82
2022-08-28T05:51:40.140Z,18.24
2022-08-28T05:56:42.824Z,19.07
2022-08-28T06:01:45.799Z,19.50
2022-08-28T06:06:49.334Z,19.68
2022-08-28T06:11:50.735Z,19.97
2022-08-28T06:16:55.099Z,19.72
2022-08-28T06:21:57.967Z,20.55
2022-08-28T06:26:59.595Z,22.33
2022-08-28T06:32:02.102Z,24.19
2022-08-28T06:37:03.654Z,24.52
2022-08-28T06:42:05.560Z,25.56
2022-08-28T06:47:06.911Z,26.32
2022-08-28T06:52:08.247Z,25.42
2022-08-28T06:57:09.940Z,27.11
2022-08-28T07:02:11.449Z,26.67
2022-08-28T07:07:15.696Z,26.74
2022-08-28T07:12:33.251Z,28.00
2022-08-28T07:17:35.971Z,28.77
2022-08-28T07:22:38.077Z,28.00
2022-08-28T07:27:39.463Z,27.97
2022-08-28T07:32:40.839Z,28.44
2022-08-28T07:37:42.640Z,28.43
2022-08-28T07:43:04.259Z,29.25
2022-08-28T07:48:11.354Z,30.23
2022-08-28T07:53:13.767Z,29.99
2022-08-28T07:58:15.157Z,31.03
2022-08-28T08:03:16.703Z,32.39
2022-08-28T08:08:18.118Z,29.37
2022-08-28T08:13:19.452Z,29.69
2022-08-28T08:18:21.010Z,28.43
2022-08-28T08:23:26.006Z,29.28
2022-08-28T08:28:28.037Z,31.76
2022-08-28T08:33:29.436Z,31.00
2022-08-28T08:38:31.692Z,30.28
2022-08-28T08:43:41.952Z,30.64
2022-08-28T08:48:44.439Z,31.07
2022-08-28T08:54:03.447Z,32.43
2022-08-28T08:59:07.946Z,31.24
2022-08-28T09:04:27.785Z,31.62
2022-08-28T09:09:32.634Z,31.93
2022-08-28T09:14:41.686Z,31.75
2022-08-28T09:19:43.086Z,33.00
2022-08-28T09:24:44.425Z,33.87
2022-08-28T09:29:53.978Z,33.11
2022-08-28T09:35:08.190Z,34.02
2022-08-28T09:40:18.867Z,32.14
2022-08-28T09:45:22.467Z,30.45
2022-08-28T09:50:30.158Z,27.91
2022-08-28T09:55:43.491Z,30.48
2022-08-28T10:00:51.108Z,31.01
2022-08-28T10:06:03.051Z,30.86
2022-08-28T10:11:15.713Z,30.56
2022-08-28T10:16:28.748Z,31.61
2022-08-28T10:21:36.097Z,32.15
2022-08-28T10:26:53.227Z,30.77
2022-08-28T10:31:54.563Z,31.21
2022-08-28T10:37:02.500Z,31.27
2022-08-28T10:42:05.033Z,31.94
2022-08-28T10:47:07.284Z,30.61
2022-08-28T10:52:11.215Z,30.79
2022-08-28T10:57:29.283Z,31.49
2022-08-28T11:02:31.069Z,30.43
2022-08-28T11:07:35.986Z,31.37
2022-08-28T11:12:42.920Z,31.62
2022-08-28T11:17:44.400Z,31.38
2022-08-28T11:23:04.445Z,32.22
2022-08-28T11:28:16.218Z,31.75
2022-08-28T11:33:36.202Z,31.32
2022-08-28T11:38:40.619Z,31.63
2022-08-28T11:43:43.796Z,30.87
2022-08-28T11:48:48.387Z,30.47
2022-08-28T11:54:19.070Z,30.95
2022-08-28T11:59:35.281Z,30.70
2022-08-28T12:04:42.185Z,30.25
2022-08-28T12:09:47.656Z,31.11
2022-08-28T12:14:54.933Z,30.50
2022-08-28T12:20:10.409Z,30.60
2022-08-28T12:25:20.651Z,29.25
2022-08-28T12:30:34.748Z,28.64
2022-08-28T12:35:36.545Z,28.64
2022-08-28T12:40:38.042Z,27.68
2022-08-28T12:45:40.710Z,27.85
2022-08-28T12:50:42.274Z,27.82
2022-08-28T12:55:44.543Z,27.79
2022-08-28T13:00:52.657Z,27.68
2022-08-28T13:05:58.683Z,27.71
2022-08-28T13:11:00.819Z,27.91
2022-08-28T13:16:03.767Z,27.48
2022-08-28T13:21:17.390Z,27.13
2022-08-28T13:26:33.978Z,27.19
2022-08-28T13:31:36.844Z,27.24
2022-08-28T13:36:46.011Z,26.67
2022-08-28T13:41:49.158Z,26.94
2022-08-28T13:46:50.542Z,26.91
2022-08-28T13:51:54.799Z,27.16
2022-08-28T13:56:57.986Z,27.18
2022-08-28T14:02:21.691Z,26.89
2022-08-28T14:07:23.571Z,27.32
2022-08-28T14:12:32.987Z,27.25
2022-08-28T14:17:34.782Z,26.63
2022-08-28T14:22:36.171Z,26.53
2022-08-28T14:27:37.779Z,26.19
2022-08-28T14:32:39.450Z,26.43
2022-08-28T14:37:41.856Z,26.41
2022-08-28T14:42:43.246Z,26.22
2022-08-28T14:47:45.446Z,25.95
2022-08-28T14:52:46.807Z,25.59
2022-08-28T14:57:52.062Z,25.55
2022-08-28T15:02:59.859Z,25.34
2022-08-28T15:08:02.422Z,25.44
2022-08-28T15:13:04.007Z,25.30
2022-08-28T15:18:10.724Z,25.05
2022-08-28T15:23:12.871Z,24.84
2022-08-28T15:28:14.855Z,24.72
2022-08-28T15:33:16.401Z,24.62
2022-08-28T15:38:17.746Z,24.48
2022-08-28T15:43:19.764Z,24.45
2022-08-28T15:48:21.107Z,24.39
2022-08-28T15:53:22.565Z,24.32
2022-08-28T15:58:24.086Z,24.08
2022-08-28T16:03:26.335Z,24.04
2022-08-28T16:08:28.341Z,23.96
2022-08-28T16:13:29.679Z,23.82
2022-08-28T16:18:31.028Z,23.73
2022-08-28T16:23:32.910Z,23.61
2022-08-28T16:28:38.229Z,23.64
2022-08-28T16:33:39.751Z,23.65
2022-08-28T16:38:42.142Z,23.48
2022-08-28T16:43:43.579Z,23.38
2022-08-28T16:48:45.546Z,23.32
2022-08-28T16:53:47.296Z,23.13
2022-08-28T16:58:48.743Z,23.20
2022-08-28T17:03:57.591Z,23.10
2022-08-28T17:08:58.973Z,22.79
2022-08-28T17:14:00.609Z,22.69
2022-08-28T17:19:02.016Z,22.65
2022-08-28T17:24:03.504Z,22.49
2022-08-28T17:29:05.479Z,22.33
2022-08-28T17:34:07.553Z,22.15
2022-08-28T17:39:11.481Z,21.96
2022-08-28T17:44:14.501Z,21.79
2022-08-28T17:49:15.836Z,21.61
2022-08-28T17:54:18.554Z,21.49
2022-08-28T17:59:20.629Z,21.32
2022-08-28T18:04:24.434Z,21.19
2022-08-28T18:09:26.091Z,21.03
2022-08-28T18:14:27.422Z,20.82
2022-08-28T18:19:28.769Z,20.63
2022-08-28T18:24:30.104Z,20.46
2022-08-28T18:29:34.539Z,20.32
2022-08-28T18:34:36.771Z,20.19
2022-08-28T18:39:39.151Z,20.09
2022-08-28T18:44:40.533Z,19.84
2022-08-28T18:49:42.968Z,19.59
2022-08-28T18:54:44.314Z,19.38
2022-08-28T18:59:48.159Z,19.20
2022-08-28T19:04:49.504Z,19.02
2022-08-28T19:09:50.846Z,18.87
2022-08-28T19:14:53.269Z,18.68
2022-08-28T19:19:54.629Z,18.62
2022-08-28T19:24:56.232Z,18.49
2022-08-28T19:29:57.579Z,18.29
2022-08-28T19:34:59.316Z,18.06
2022-08-28T19:40:00.814Z,17.77
2022-08-28T19:45:03.022Z,17.57
2022-08-28T19:50:05.062Z,17.45
2022-08-28T19:55:06.855Z,17.34
2022-08-28T20:00:09.198Z,17.22
2022-08-28T20:05:11.287Z,17.15
2022-08-28T20:10:13.054Z,17.10
2022-08-28T20:15:15.930Z,16.92
2022-08-28T20:20:21.417Z,16.73
2022-08-28T20:25:22.757Z,16.64
2022-08-28T20:30:24.095Z,16.51
2022-08-28T20:35:25.533Z,16.33
2022-08-28T20:40:29.218Z,16.18
2022-08-28T20:45:30.994Z,16.03
2022-08-28T20:50:32.356Z,15.96
2022-08-28T20:55:33.795Z,15.88
2022-08-28T21:00:35.672Z,15.82
2022-08-28T21:05:37.047Z,15.64
2022-08-28T21:10:39.830Z,15.50
2022-08-28T21:15:41.445Z,15.51
2022-08-28T21:20:42.916Z,15.58
2022-08-28T21:25:44.755Z,15.53
2022-08-28T21:30:46.170Z,15.34
2022-08-28T21:35:47.534Z,15.31
2022-08-28T21:40:48.873Z,15.50
2022-08-28T21:46:00.531Z,15.25
2022-08-28T21:51:02.694Z,15.28
2022-08-28T21:56:06.340Z,15.21
2022-08-28T22:01:11.648Z,15.22
2022-08-28T22:06:14.826Z,15.11
2022-08-28T22:11:17.107Z,14.90
2022-08-28T22:16:26.999Z,14.77
2022-08-28T22:21:47.136Z,14.69
2022-08-28T22:26:48.504Z,14.56
2022-08-28T22:31:49.932Z,14.43
2022-08-28T22:36:51.364Z,14.47
2022-08-28T22:41:52.702Z,14.40
2022-08-28T22:46:54.063Z,14.35
2022-08-28T22:51:55.434Z,14.26
2022-08-28T22:56:56.775Z,14.18
2022-08-28T23:01:58.805Z,14.03
2022-08-28T23:07:00.302Z,13.90
2022-08-28T23:12:01.965Z,13.84
2022-08-28T23:17:03.439Z,13.81
2022-08-28T23:22:05.746Z,13.61
2022-08-28T23:27:32.391Z,13.54
2022-08-28T23:32:28.602Z,13.46
2022-08-28T23:37:29.942Z,13.40
2022-08-28T23:42:32.659Z,13.42
2022-08-28T23:47:34.120Z,13.32
2022-08-28T23:52:43.099Z,13.19
2022-08-28T23:57:46.049Z,13.19
